sensor_id;sensor_type;location;lat;lon;timestamp;P1;durP1;ratioP1;P2;durP2;ratioP2
12567;SDS011;6349;50.904;6.136;2024-02-14T00:01:19;0.70;;;0.70;;
12567;SDS011;6349;50.904;6.136;2024-02-14T00:03:20;0.90;;;0.90;;
12567;SDS011;6349;50.904;6.136;2024-02-14T00:05:21;1.97;;;0.90;;
12567;SDS011;6349;50.904;6.136;2024-02-14T00:07:23;1.77;;;0.83;;
12567;SDS011;6349;50.904;6.136;2024-02-14T00:09:23;1.37;;;0.90;;
12567;SDS011;6349;50.904;6.136;2024-02-14T00:11:24;1.00;;;0.90;;
12567;SDS011;6349;50.904;6.136;2024-02-14T00:13:24;1.80;;;1.10;;
12567;SDS011;6349;50.904;6.136;2024-02-14T00:15:25;2.07;;;1.00;;
12567;SDS011;6349;50.904;6.136;2024-02-14T00:17:25;1.80;;;1.03;;
12567;SDS011;6349;50.904;6.136;2024-02-14T00:19:26;2.17;;;1.10;;
12567;SDS011;6349;50.904;6.136;2024-02-14T00:21:26;1.43;;;0.80;;
12567;SDS011;6349;50.904;6.136;2024-02-14T00:23:27;1.80;;;0.77;;
12567;SDS011;6349;50.904;6.136;2024-02-14T00:25:28;1.20;;;0.90;;
12567;SDS011;6349;50.904;6.136;2024-02-14T00:27:30;1.30;;;0.80;;
12567;SDS011;6349;50.904;6.136;2024-02-14T00:29:30;1.17;;;0.90;;
12567;SDS011;6349;50.904;6.136;2024-02-14T00:31:33;1.13;;;0.90;;
12567;SDS011;6349;50.904;6.136;2024-02-14T00:33:34;1.10;;;0.90;;
12567;SDS011;6349;50.904;6.136;2024-02-14T00:35:34;1.90;;;0.80;;
12567;SDS011;6349;50.904;6.136;2024-02-14T00:37:35;1.00;;;0.80;;
12567;SDS011;6349;50.904;6.136;2024-02-14T00:39:35;2.07;;;1.13;;
12567;SDS011;6349;50.904;6.136;2024-02-14T00:41:36;1.77;;;1.10;;
12567;SDS011;6349;50.904;6.136;2024-02-14T00:43:36;1.40;;;0.80;;
12567;SDS011;6349;50.904;6.136;2024-02-14T00:45:37;2.07;;;1.33;;
12567;SDS011;6349;50.904;6.136;2024-02-14T00:47:38;1.70;;;1.13;;
12567;SDS011;6349;50.904;6.136;2024-02-14T00:49:38;1.20;;;0.93;;
12567;SDS011;6349;50.904;6.136;2024-02-14T00:51:39;1.43;;;1.00;;
12567;SDS011;6349;50.904;6.136;2024-02-14T00:53:40;2.20;;;1.00;;
12567;SDS011;6349;50.904;6.136;2024-02-14T00:55:40;1.60;;;0.83;;
12567;SDS011;6349;50.904;6.136;2024-02-14T00:57:41;1.83;;;1.10;;
12567;SDS011;6349;50.904;6.136;2024-02-14T00:59:42;2.00;;;1.20;;
12567;SDS011;6349;50.904;6.136;2024-02-14T01:01:42;0.80;;;0.80;;
12567;SDS011;6349;50.904;6.136;2024-02-14T01:03:44;1.77;;;1.00;;
12567;SDS011;6349;50.904;6.136;2024-02-14T01:05:45;0.80;;;0.80;;
12567;SDS011;6349;50.904;6.136;2024-02-14T01:07:47;1.47;;;0.93;;
12567;SDS011;6349;50.904;6.136;2024-02-14T01:09:48;1.93;;;1.10;;
12567;SDS011;6349;50.904;6.136;2024-02-14T01:11:50;1.47;;;1.00;;
12567;SDS011;6349;50.904;6.136;2024-02-14T01:13:50;1.13;;;1.03;;
12567;SDS011;6349;50.904;6.136;2024-02-14T01:15:51;1.57;;;1.10;;
12567;SDS011;6349;50.904;6.136;2024-02-14T01:17:52;1.53;;;1.20;;
12567;SDS011;6349;50.904;6.136;2024-02-14T01:19:52;1.20;;;1.10;;
12567;SDS011;6349;50.904;6.136;2024-02-14T01:21:53;1.60;;;1.00;;
12567;SDS011;6349;50.904;6.136;2024-02-14T01:23:54;1.77;;;0.90;;
12567;SDS011;6349;50.904;6.136;2024-02-14T01:25:54;2.33;;;1.20;;
12567;SDS011;6349;50.904;6.136;2024-02-14T01:27:55;1.20;;;1.00;;
12567;SDS011;6349;50.904;6.136;2024-02-14T01:29:56;1.23;;;0.93;;
12567;SDS011;6349;50.904;6.136;2024-02-14T01:31:57;1.10;;;1.00;;
12567;SDS011;6349;50.904;6.136;2024-02-14T01:33:58;1.73;;;1.10;;
12567;SDS011;6349;50.904;6.136;2024-02-14T01:35:59;1.30;;;1.10;;
12567;SDS011;6349;50.904;6.136;2024-02-14T01:37:59;1.00;;;0.90;;
12567;SDS011;6349;50.904;6.136;2024-02-14T01:40:00;1.30;;;1.00;;
12567;SDS011;6349;50.904;6.136;2024-02-14T01:42:01;1.20;;;0.90;;
12567;SDS011;6349;50.904;6.136;2024-02-14T01:44:06;1.30;;;0.90;;
12567;SDS011;6349;50.904;6.136;2024-02-14T01:46:07;1.37;;;0.90;;
12567;SDS011;6349;50.904;6.136;2024-02-14T01:48:08;1.10;;;1.00;;
12567;SDS011;6349;50.904;6.136;2024-02-14T01:50:09;1.40;;;1.00;;
12567;SDS011;6349;50.904;6.136;2024-02-14T01:52:11;1.00;;;0.90;;
12567;SDS011;6349;50.904;6.136;2024-02-14T01:54:12;4.17;;;1.10;;
12567;SDS011;6349;50.904;6.136;2024-02-14T01:56:14;1.00;;;0.90;;
12567;SDS011;6349;50.904;6.136;2024-02-14T01:58:15;1.80;;;1.03;;
12567;SDS011;6349;50.904;6.136;2024-02-14T02:00:16;1.10;;;0.90;;
12567;SDS011;6349;50.904;6.136;2024-02-14T02:02:18;1.00;;;0.90;;
12567;SDS011;6349;50.904;6.136;2024-02-14T02:04:20;1.63;;;1.00;;
12567;SDS011;6349;50.904;6.136;2024-02-14T02:06:21;1.13;;;0.90;;
12567;SDS011;6349;50.904;6.136;2024-02-14T02:08:21;1.63;;;1.30;;
12567;SDS011;6349;50.904;6.136;2024-02-14T02:10:22;1.37;;;1.00;;
12567;SDS011;6349;50.904;6.136;2024-02-14T02:12:26;1.50;;;1.00;;
12567;SDS011;6349;50.904;6.136;2024-02-14T02:14:27;1.23;;;0.97;;
12567;SDS011;6349;50.904;6.136;2024-02-14T02:16:28;1.73;;;1.10;;
12567;SDS011;6349;50.904;6.136;2024-02-14T02:18:28;1.13;;;1.03;;
12567;SDS011;6349;50.904;6.136;2024-02-14T02:20:29;0.97;;;0.90;;
12567;SDS011;6349;50.904;6.136;2024-02-14T02:22:29;1.60;;;1.20;;
12567;SDS011;6349;50.904;6.136;2024-02-14T02:24:32;3.27;;;1.30;;
12567;SDS011;6349;50.904;6.136;2024-02-14T02:26:32;1.30;;;1.10;;
12567;SDS011;6349;50.904;6.136;2024-02-14T02:28:33;1.30;;;1.20;;
12567;SDS011;6349;50.904;6.136;2024-02-14T02:30:34;1.13;;;1.03;;
12567;SDS011;6349;50.904;6.136;2024-02-14T02:32:38;1.50;;;1.40;;
12567;SDS011;6349;50.904;6.136;2024-02-14T02:34:38;2.40;;;1.30;;
12567;SDS011;6349;50.904;6.136;2024-02-14T02:36:40;2.33;;;1.40;;
12567;SDS011;6349;50.904;6.136;2024-02-14T02:38:41;1.63;;;1.40;;
12567;SDS011;6349;50.904;6.136;2024-02-14T02:40:42;2.30;;;1.40;;
12567;SDS011;6349;50.904;6.136;2024-02-14T02:42:43;1.87;;;1.10;;
12567;SDS011;6349;50.904;6.136;2024-02-14T02:44:49;2.47;;;1.20;;
12567;SDS011;6349;50.904;6.136;2024-02-14T02:46:50;1.87;;;1.40;;
12567;SDS011;6349;50.904;6.136;2024-02-14T02:48:51;1.40;;;1.23;;
12567;SDS011;6349;50.904;6.136;2024-02-14T02:50:54;1.80;;;1.30;;
12567;SDS011;6349;50.904;6.136;2024-02-14T02:52:55;1.87;;;1.50;;
12567;SDS011;6349;50.904;6.136;2024-02-14T02:54:57;1.77;;;1.50;;
12567;SDS011;6349;50.904;6.136;2024-02-14T02:56:57;1.93;;;1.40;;
12567;SDS011;6349;50.904;6.136;2024-02-14T02:58:58;1.60;;;1.50;;
12567;SDS011;6349;50.904;6.136;2024-02-14T03:00:59;2.10;;;1.57;;
12567;SDS011;6349;50.904;6.136;2024-02-14T03:03:00;1.53;;;1.30;;
12567;SDS011;6349;50.904;6.136;2024-02-14T03:05:02;1.77;;;1.30;;
12567;SDS011;6349;50.904;6.136;2024-02-14T03:07:03;1.97;;;1.50;;
12567;SDS011;6349;50.904;6.136;2024-02-14T03:09:06;1.57;;;1.30;;
12567;SDS011;6349;50.904;6.136;2024-02-14T03:11:07;2.07;;;1.60;;
12567;SDS011;6349;50.904;6.136;2024-02-14T03:13:08;2.13;;;1.40;;
12567;SDS011;6349;50.904;6.136;2024-02-14T03:15:11;1.93;;;1.70;;
12567;SDS011;6349;50.904;6.136;2024-02-14T03:17:13;1.90;;;1.60;;
12567;SDS011;6349;50.904;6.136;2024-02-14T03:19:13;1.63;;;1.53;;
12567;SDS011;6349;50.904;6.136;2024-02-14T03:21:14;1.93;;;1.60;;
12567;SDS011;6349;50.904;6.136;2024-02-14T03:23:15;2.60;;;1.50;;
12567;SDS011;6349;50.904;6.136;2024-02-14T03:25:16;2.07;;;1.67;;
12567;SDS011;6349;50.904;6.136;2024-02-14T03:27:18;2.63;;;1.43;;
12567;SDS011;6349;50.904;6.136;2024-02-14T03:29:19;2.33;;;1.70;;
12567;SDS011;6349;50.904;6.136;2024-02-14T03:31:20;1.90;;;1.40;;
12567;SDS011;6349;50.904;6.136;2024-02-14T03:33:21;3.07;;;1.67;;
12567;SDS011;6349;50.904;6.136;2024-02-14T03:35:22;2.30;;;1.70;;
12567;SDS011;6349;50.904;6.136;2024-02-14T03:37:22;2.03;;;1.57;;
12567;SDS011;6349;50.904;6.136;2024-02-14T03:39:23;1.90;;;1.70;;
12567;SDS011;6349;50.904;6.136;2024-02-14T03:41:23;1.73;;;1.50;;
12567;SDS011;6349;50.904;6.136;2024-02-14T03:43:24;2.97;;;1.83;;
12567;SDS011;6349;50.904;6.136;2024-02-14T03:45:24;1.83;;;1.70;;
12567;SDS011;6349;50.904;6.136;2024-02-14T03:47:25;1.70;;;1.60;;
12567;SDS011;6349;50.904;6.136;2024-02-14T03:49:25;2.33;;;1.43;;
12567;SDS011;6349;50.904;6.136;2024-02-14T03:51:26;1.80;;;1.50;;
12567;SDS011;6349;50.904;6.136;2024-02-14T03:53:27;2.00;;;1.50;;
12567;SDS011;6349;50.904;6.136;2024-02-14T03:55:27;2.83;;;1.70;;
12567;SDS011;6349;50.904;6.136;2024-02-14T03:57:30;2.00;;;1.80;;
12567;SDS011;6349;50.904;6.136;2024-02-14T03:59:30;1.60;;;1.50;;
12567;SDS011;6349;50.904;6.136;2024-02-14T04:01:32;1.43;;;1.33;;
12567;SDS011;6349;50.904;6.136;2024-02-14T04:03:33;2.30;;;1.70;;
12567;SDS011;6349;50.904;6.136;2024-02-14T04:05:34;2.80;;;1.60;;
12567;SDS011;6349;50.904;6.136;2024-02-14T04:07:34;1.73;;;1.60;;
12567;SDS011;6349;50.904;6.136;2024-02-14T04:09:36;1.80;;;1.60;;
12567;SDS011;6349;50.904;6.136;2024-02-14T04:11:36;1.50;;;1.40;;
12567;SDS011;6349;50.904;6.136;2024-02-14T04:13:37;1.57;;;1.47;;
12567;SDS011;6349;50.904;6.136;2024-02-14T04:15:38;1.70;;;1.60;;
12567;SDS011;6349;50.904;6.136;2024-02-14T04:17:41;2.03;;;1.50;;
12567;SDS011;6349;50.904;6.136;2024-02-14T04:19:42;1.63;;;1.40;;
12567;SDS011;6349;50.904;6.136;2024-02-14T04:21:43;1.60;;;1.40;;
12567;SDS011;6349;50.904;6.136;2024-02-14T04:23:44;2.23;;;1.57;;
12567;SDS011;6349;50.904;6.136;2024-02-14T04:25:44;1.70;;;1.60;;
12567;SDS011;6349;50.904;6.136;2024-02-14T04:27:45;1.87;;;1.60;;
12567;SDS011;6349;50.904;6.136;2024-02-14T04:29:46;1.40;;;1.30;;
12567;SDS011;6349;50.904;6.136;2024-02-14T04:31:47;1.63;;;1.50;;
12567;SDS011;6349;50.904;6.136;2024-02-14T04:33:48;1.97;;;1.60;;
12567;SDS011;6349;50.904;6.136;2024-02-14T04:35:52;2.00;;;1.60;;
12567;SDS011;6349;50.904;6.136;2024-02-14T04:37:52;1.87;;;1.70;;
12567;SDS011;6349;50.904;6.136;2024-02-14T04:39:53;2.83;;;1.70;;
12567;SDS011;6349;50.904;6.136;2024-02-14T04:41:54;1.87;;;1.50;;
12567;SDS011;6349;50.904;6.136;2024-02-14T04:43:54;2.27;;;1.60;;
12567;SDS011;6349;50.904;6.136;2024-02-14T04:45:55;2.63;;;1.83;;
12567;SDS011;6349;50.904;6.136;2024-02-14T04:47:55;1.87;;;1.67;;
12567;SDS011;6349;50.904;6.136;2024-02-14T04:49:56;2.33;;;1.53;;
12567;SDS011;6349;50.904;6.136;2024-02-14T04:51:57;2.47;;;1.70;;
12567;SDS011;6349;50.904;6.136;2024-02-14T04:53:58;2.13;;;1.90;;
12567;SDS011;6349;50.904;6.136;2024-02-14T04:55:58;2.03;;;1.83;;
12567;SDS011;6349;50.904;6.136;2024-02-14T04:57:59;2.37;;;1.70;;
12567;SDS011;6349;50.904;6.136;2024-02-14T05:00:00;1.63;;;1.53;;
12567;SDS011;6349;50.904;6.136;2024-02-14T05:02:02;1.87;;;1.70;;
12567;SDS011;6349;50.904;6.136;2024-02-14T05:04:03;2.30;;;1.77;;
12567;SDS011;6349;50.904;6.136;2024-02-14T05:06:04;3.37;;;1.80;;
12567;SDS011;6349;50.904;6.136;2024-02-14T05:08:05;2.13;;;1.93;;
12567;SDS011;6349;50.904;6.136;2024-02-14T05:10:06;2.47;;;2.00;;
12567;SDS011;6349;50.904;6.136;2024-02-14T05:12:07;2.23;;;1.67;;
12567;SDS011;6349;50.904;6.136;2024-02-14T05:14:10;3.07;;;1.70;;
12567;SDS011;6349;50.904;6.136;2024-02-14T05:16:11;2.90;;;1.93;;
12567;SDS011;6349;50.904;6.136;2024-02-14T05:18:11;1.73;;;1.63;;
12567;SDS011;6349;50.904;6.136;2024-02-14T05:20:12;2.33;;;1.73;;
12567;SDS011;6349;50.904;6.136;2024-02-14T05:22:12;1.90;;;1.80;;
12567;SDS011;6349;50.904;6.136;2024-02-14T05:24:13;1.90;;;1.80;;
12567;SDS011;6349;50.904;6.136;2024-02-14T05:26:14;2.27;;;1.90;;
12567;SDS011;6349;50.904;6.136;2024-02-14T05:28:15;2.40;;;1.97;;
12567;SDS011;6349;50.904;6.136;2024-02-14T05:30:17;1.80;;;1.70;;
12567;SDS011;6349;50.904;6.136;2024-02-14T05:32:18;2.33;;;1.90;;
12567;SDS011;6349;50.904;6.136;2024-02-14T05:34:18;2.10;;;1.80;;
12567;SDS011;6349;50.904;6.136;2024-02-14T05:36:19;1.67;;;1.50;;
12567;SDS011;6349;50.904;6.136;2024-02-14T05:38:19;2.97;;;1.90;;
12567;SDS011;6349;50.904;6.136;2024-02-14T05:40:20;2.37;;;1.67;;
12567;SDS011;6349;50.904;6.136;2024-02-14T05:42:21;1.70;;;1.60;;
12567;SDS011;6349;50.904;6.136;2024-02-14T05:44:22;1.83;;;1.70;;
12567;SDS011;6349;50.904;6.136;2024-02-14T05:46:22;1.87;;;1.60;;
12567;SDS011;6349;50.904;6.136;2024-02-14T05:48:23;2.80;;;1.80;;
12567;SDS011;6349;50.904;6.136;2024-02-14T05:50:24;1.50;;;1.40;;
12567;SDS011;6349;50.904;6.136;2024-02-14T05:52:25;1.60;;;1.50;;
12567;SDS011;6349;50.904;6.136;2024-02-14T05:54:25;1.43;;;1.33;;
12567;SDS011;6349;50.904;6.136;2024-02-14T05:56:26;1.53;;;1.43;;
12567;SDS011;6349;50.904;6.136;2024-02-14T05:58:26;2.00;;;1.73;;
12567;SDS011;6349;50.904;6.136;2024-02-14T06:00:28;2.00;;;1.60;;
12567;SDS011;6349;50.904;6.136;2024-02-14T06:02:29;1.90;;;1.80;;
12567;SDS011;6349;50.904;6.136;2024-02-14T06:04:30;1.80;;;1.70;;
12567;SDS011;6349;50.904;6.136;2024-02-14T06:06:31;1.70;;;1.60;;
12567;SDS011;6349;50.904;6.136;2024-02-14T06:08:31;2.00;;;1.80;;
12567;SDS011;6349;50.904;6.136;2024-02-14T06:10:32;2.97;;;1.80;;
12567;SDS011;6349;50.904;6.136;2024-02-14T06:12:34;2.10;;;1.90;;
12567;SDS011;6349;50.904;6.136;2024-02-14T06:14:36;2.30;;;2.00;;
12567;SDS011;6349;50.904;6.136;2024-02-14T06:16:36;2.23;;;1.70;;
12567;SDS011;6349;50.904;6.136;2024-02-14T06:18:37;2.97;;;1.70;;
12567;SDS011;6349;50.904;6.136;2024-02-14T06:20:39;2.07;;;1.90;;
12567;SDS011;6349;50.904;6.136;2024-02-14T06:22:40;2.23;;;1.87;;
12567;SDS011;6349;50.904;6.136;2024-02-14T06:24:41;2.10;;;1.80;;
12567;SDS011;6349;50.904;6.136;2024-02-14T06:26:41;1.73;;;1.63;;
12567;SDS011;6349;50.904;6.136;2024-02-14T06:28:42;1.93;;;1.67;;
12567;SDS011;6349;50.904;6.136;2024-02-14T06:30:42;2.60;;;2.10;;
12567;SDS011;6349;50.904;6.136;2024-02-14T06:32:43;2.60;;;1.90;;
12567;SDS011;6349;50.904;6.136;2024-02-14T06:34:43;2.27;;;1.73;;
12567;SDS011;6349;50.904;6.136;2024-02-14T06:36:44;2.70;;;1.90;;
12567;SDS011;6349;50.904;6.136;2024-02-14T06:38:44;1.80;;;1.70;;
12567;SDS011;6349;50.904;6.136;2024-02-14T06:40:46;2.43;;;1.70;;
12567;SDS011;6349;50.904;6.136;2024-02-14T06:42:46;2.43;;;1.90;;
12567;SDS011;6349;50.904;6.136;2024-02-14T06:44:50;2.53;;;1.80;;
12567;SDS011;6349;50.904;6.136;2024-02-14T06:46:51;2.13;;;1.70;;
12567;SDS011;6349;50.904;6.136;2024-02-14T06:48:51;2.07;;;1.80;;
12567;SDS011;6349;50.904;6.136;2024-02-14T06:50:52;3.03;;;1.93;;
12567;SDS011;6349;50.904;6.136;2024-02-14T06:52:52;2.80;;;1.90;;
12567;SDS011;6349;50.904;6.136;2024-02-14T06:54:53;3.67;;;1.70;;
12567;SDS011;6349;50.904;6.136;2024-02-14T06:56:53;2.87;;;2.10;;
12567;SDS011;6349;50.904;6.136;2024-02-14T06:58:56;2.95;;;1.85;;
12567;SDS011;6349;50.904;6.136;2024-02-14T07:00:59;2.33;;;2.10;;
12567;SDS011;6349;50.904;6.136;2024-02-14T07:03:00;2.10;;;1.90;;
12567;SDS011;6349;50.904;6.136;2024-02-14T07:05:01;3.17;;;2.30;;
12567;SDS011;6349;50.904;6.136;2024-02-14T07:07:02;3.30;;;2.20;;
12567;SDS011;6349;50.904;6.136;2024-02-14T07:09:03;2.10;;;1.80;;
12567;SDS011;6349;50.904;6.136;2024-02-14T07:11:03;2.60;;;2.13;;
12567;SDS011;6349;50.904;6.136;2024-02-14T07:13:04;2.20;;;2.00;;
12567;SDS011;6349;50.904;6.136;2024-02-14T07:15:05;2.27;;;2.07;;
12567;SDS011;6349;50.904;6.136;2024-02-14T07:17:06;2.13;;;1.90;;
12567;SDS011;6349;50.904;6.136;2024-02-14T07:19:06;2.10;;;1.73;;
12567;SDS011;6349;50.904;6.136;2024-02-14T07:21:07;1.90;;;1.70;;
12567;SDS011;6349;50.904;6.136;2024-02-14T07:23:07;1.70;;;1.60;;
12567;SDS011;6349;50.904;6.136;2024-02-14T07:25:08;3.00;;;2.00;;
12567;SDS011;6349;50.904;6.136;2024-02-14T07:27:10;2.27;;;1.90;;
12567;SDS011;6349;50.904;6.136;2024-02-14T07:29:11;1.87;;;1.53;;
12567;SDS011;6349;50.904;6.136;2024-02-14T07:31:12;2.97;;;1.80;;
12567;SDS011;6349;50.904;6.136;2024-02-14T07:33:12;2.07;;;1.57;;
12567;SDS011;6349;50.904;6.136;2024-02-14T07:35:13;1.97;;;1.77;;
12567;SDS011;6349;50.904;6.136;2024-02-14T07:37:13;2.77;;;1.70;;
12567;SDS011;6349;50.904;6.136;2024-02-14T07:39:19;2.80;;;1.67;;
12567;SDS011;6349;50.904;6.136;2024-02-14T07:41:20;3.90;;;2.00;;
12567;SDS011;6349;50.904;6.136;2024-02-14T07:43:20;2.27;;;1.90;;
12567;SDS011;6349;50.904;6.136;2024-02-14T07:45:21;2.73;;;1.70;;
12567;SDS011;6349;50.904;6.136;2024-02-14T07:47:22;1.97;;;1.70;;
12567;SDS011;6349;50.904;6.136;2024-02-14T07:49:22;2.10;;;1.80;;
12567;SDS011;6349;50.904;6.136;2024-02-14T07:51:23;1.93;;;1.73;;
12567;SDS011;6349;50.904;6.136;2024-02-14T07:53:23;3.30;;;1.83;;
12567;SDS011;6349;50.904;6.136;2024-02-14T07:55:24;1.70;;;1.60;;
12567;SDS011;6349;50.904;6.136;2024-02-14T07:57:25;1.80;;;1.60;;
12567;SDS011;6349;50.904;6.136;2024-02-14T07:59:25;2.67;;;1.70;;
12567;SDS011;6349;50.904;6.136;2024-02-14T08:01:27;2.47;;;1.60;;
12567;SDS011;6349;50.904;6.136;2024-02-14T08:03:28;2.03;;;1.70;;
12567;SDS011;6349;50.904;6.136;2024-02-14T08:05:28;2.43;;;1.63;;
12567;SDS011;6349;50.904;6.136;2024-02-14T08:07:29;2.37;;;1.57;;
12567;SDS011;6349;50.904;6.136;2024-02-14T08:09:30;2.60;;;1.77;;
12567;SDS011;6349;50.904;6.136;2024-02-14T08:11:30;2.07;;;1.47;;
12567;SDS011;6349;50.904;6.136;2024-02-14T08:13:31;2.30;;;1.63;;
12567;SDS011;6349;50.904;6.136;2024-02-14T08:15:32;2.83;;;1.87;;
12567;SDS011;6349;50.904;6.136;2024-02-14T08:17:33;1.70;;;1.43;;
12567;SDS011;6349;50.904;6.136;2024-02-14T08:19:33;2.33;;;1.40;;
12567;SDS011;6349;50.904;6.136;2024-02-14T08:21:34;2.77;;;1.43;;
12567;SDS011;6349;50.904;6.136;2024-02-14T08:23:36;2.07;;;1.50;;
12567;SDS011;6349;50.904;6.136;2024-02-14T08:25:38;3.07;;;1.60;;
12567;SDS011;6349;50.904;6.136;2024-02-14T08:27:41;2.37;;;1.50;;
12567;SDS011;6349;50.904;6.136;2024-02-14T08:29:41;1.90;;;1.60;;
12567;SDS011;6349;50.904;6.136;2024-02-14T08:31:42;2.33;;;1.50;;
12567;SDS011;6349;50.904;6.136;2024-02-14T08:33:42;1.70;;;1.37;;
12567;SDS011;6349;50.904;6.136;2024-02-14T08:35:43;2.57;;;1.60;;
12567;SDS011;6349;50.904;6.136;2024-02-14T08:37:43;2.70;;;1.50;;
12567;SDS011;6349;50.904;6.136;2024-02-14T08:39:44;2.53;;;1.50;;
12567;SDS011;6349;50.904;6.136;2024-02-14T08:41:44;2.17;;;1.30;;
12567;SDS011;6349;50.904;6.136;2024-02-14T08:43:46;2.47;;;1.60;;
12567;SDS011;6349;50.904;6.136;2024-02-14T08:45:47;2.80;;;1.40;;
12567;SDS011;6349;50.904;6.136;2024-02-14T08:47:48;1.63;;;1.23;;
12567;SDS011;6349;50.904;6.136;2024-02-14T08:49:48;2.53;;;1.47;;
12567;SDS011;6349;50.904;6.136;2024-02-14T08:51:49;2.67;;;1.40;;
12567;SDS011;6349;50.904;6.136;2024-02-14T08:53:50;1.80;;;1.40;;
12567;SDS011;6349;50.904;6.136;2024-02-14T08:55:54;2.00;;;1.50;;
12567;SDS011;6349;50.904;6.136;2024-02-14T08:57:55;1.40;;;1.30;;
12567;SDS011;6349;50.904;6.136;2024-02-14T08:59:55;2.30;;;1.40;;
12567;SDS011;6349;50.904;6.136;2024-02-14T09:01:56;3.33;;;1.50;;
12567;SDS011;6349;50.904;6.136;2024-02-14T09:03:57;3.40;;;1.70;;
12567;SDS011;6349;50.904;6.136;2024-02-14T09:05:59;2.10;;;1.27;;
12567;SDS011;6349;50.904;6.136;2024-02-14T09:08:00;2.43;;;1.50;;
12567;SDS011;6349;50.904;6.136;2024-02-14T09:10:00;2.43;;;1.80;;
12567;SDS011;6349;50.904;6.136;2024-02-14T09:12:01;2.50;;;1.30;;
12567;SDS011;6349;50.904;6.136;2024-02-14T09:14:02;2.30;;;1.33;;
12567;SDS011;6349;50.904;6.136;2024-02-14T09:16:07;1.53;;;1.30;;
12567;SDS011;6349;50.904;6.136;2024-02-14T09:18:09;3.13;;;1.33;;
12567;SDS011;6349;50.904;6.136;2024-02-14T09:20:09;2.53;;;1.30;;
12567;SDS011;6349;50.904;6.136;2024-02-14T09:22:10;1.80;;;1.50;;
12567;SDS011;6349;50.904;6.136;2024-02-14T09:24:11;2.97;;;1.60;;
12567;SDS011;6349;50.904;6.136;2024-02-14T09:26:12;2.60;;;1.30;;
12567;SDS011;6349;50.904;6.136;2024-02-14T09:28:13;2.97;;;1.47;;
12567;SDS011;6349;50.904;6.136;2024-02-14T09:30:15;2.23;;;1.37;;
12567;SDS011;6349;50.904;6.136;2024-02-14T09:32:17;2.03;;;1.33;;
12567;SDS011;6349;50.904;6.136;2024-02-14T09:34:18;3.20;;;1.40;;
12567;SDS011;6349;50.904;6.136;2024-02-14T09:36:20;3.20;;;1.33;;
12567;SDS011;6349;50.904;6.136;2024-02-14T09:38:21;1.53;;;1.30;;
12567;SDS011;6349;50.904;6.136;2024-02-14T09:40:21;1.57;;;1.37;;
12567;SDS011;6349;50.904;6.136;2024-02-14T09:42:25;2.03;;;1.10;;
12567;SDS011;6349;50.904;6.136;2024-02-14T09:44:52;2.17;;;1.20;;
12567;SDS011;6349;50.904;6.136;2024-02-14T09:46:58;2.07;;;1.30;;
12567;SDS011;6349;50.904;6.136;2024-02-14T09:48:59;4.17;;;1.70;;
12567;SDS011;6349;50.904;6.136;2024-02-14T09:51:01;2.17;;;1.10;;
12567;SDS011;6349;50.904;6.136;2024-02-14T09:53:02;2.07;;;1.30;;
12567;SDS011;6349;50.904;6.136;2024-02-14T09:55:03;2.73;;;1.40;;
12567;SDS011;6349;50.904;6.136;2024-02-14T09:57:05;2.57;;;1.40;;
12567;SDS011;6349;50.904;6.136;2024-02-14T09:59:06;1.20;;;1.03;;
12567;SDS011;6349;50.904;6.136;2024-02-14T10:01:07;2.20;;;1.30;;
12567;SDS011;6349;50.904;6.136;2024-02-14T10:03:08;3.07;;;1.37;;
12567;SDS011;6349;50.904;6.136;2024-02-14T10:05:08;2.10;;;1.10;;
12567;SDS011;6349;50.904;6.136;2024-02-14T10:07:09;2.13;;;1.23;;
12567;SDS011;6349;50.904;6.136;2024-02-14T10:09:09;2.07;;;1.23;;
12567;SDS011;6349;50.904;6.136;2024-02-14T10:11:10;2.17;;;1.33;;
12567;SDS011;6349;50.904;6.136;2024-02-14T10:13:11;2.23;;;1.10;;
12567;SDS011;6349;50.904;6.136;2024-02-14T10:15:11;2.00;;;1.20;;
12567;SDS011;6349;50.904;6.136;2024-02-14T10:17:18;1.20;;;1.10;;
12567;SDS011;6349;50.904;6.136;2024-02-14T10:19:19;2.03;;;1.30;;
12567;SDS011;6349;50.904;6.136;2024-02-14T10:21:20;1.93;;;1.00;;
12567;SDS011;6349;50.904;6.136;2024-02-14T10:23:21;2.67;;;1.20;;
12567;SDS011;6349;50.904;6.136;2024-02-14T10:25:22;2.63;;;1.20;;
12567;SDS011;6349;50.904;6.136;2024-02-14T10:27:25;1.87;;;1.20;;
12567;SDS011;6349;50.904;6.136;2024-02-14T10:29:26;3.37;;;1.40;;
12567;SDS011;6349;50.904;6.136;2024-02-14T10:31:27;2.07;;;1.30;;
12567;SDS011;6349;50.904;6.136;2024-02-14T10:33:28;2.03;;;1.43;;
12567;SDS011;6349;50.904;6.136;2024-02-14T10:35:31;1.87;;;1.30;;
12567;SDS011;6349;50.904;6.136;2024-02-14T10:37:32;3.27;;;1.20;;
12567;SDS011;6349;50.904;6.136;2024-02-14T10:39:32;1.77;;;1.00;;
12567;SDS011;6349;50.904;6.136;2024-02-14T10:41:36;2.53;;;1.30;;
12567;SDS011;6349;50.904;6.136;2024-02-14T10:43:37;2.10;;;1.40;;
12567;SDS011;6349;50.904;6.136;2024-02-14T10:45:40;1.57;;;1.10;;
12567;SDS011;6349;50.904;6.136;2024-02-14T10:47:42;1.67;;;1.07;;
12567;SDS011;6349;50.904;6.136;2024-02-14T10:49:44;2.33;;;1.03;;
12567;SDS011;6349;50.904;6.136;2024-02-14T10:51:47;1.53;;;1.17;;
12567;SDS011;6349;50.904;6.136;2024-02-14T10:53:49;2.93;;;1.00;;
12567;SDS011;6349;50.904;6.136;2024-02-14T10:55:53;2.13;;;1.03;;
12567;SDS011;6349;50.904;6.136;2024-02-14T10:57:58;2.33;;;1.33;;
12567;SDS011;6349;50.904;6.136;2024-02-14T11:00:04;3.33;;;1.20;;
12567;SDS011;6349;50.904;6.136;2024-02-14T11:02:14;1.23;;;1.00;;
12567;SDS011;6349;50.904;6.136;2024-02-14T11:04:15;1.60;;;0.97;;
12567;SDS011;6349;50.904;6.136;2024-02-14T11:06:16;1.33;;;1.03;;
12567;SDS011;6349;50.904;6.136;2024-02-14T11:08:20;2.20;;;1.00;;
12567;SDS011;6349;50.904;6.136;2024-02-14T11:10:22;1.43;;;1.13;;
12567;SDS011;6349;50.904;6.136;2024-02-14T11:12:23;1.77;;;1.13;;
12567;SDS011;6349;50.904;6.136;2024-02-14T11:14:24;1.73;;;1.10;;
12567;SDS011;6349;50.904;6.136;2024-02-14T11:16:31;3.17;;;1.27;;
12567;SDS011;6349;50.904;6.136;2024-02-14T11:18:33;0.93;;;0.90;;
12567;SDS011;6349;50.904;6.136;2024-02-14T11:20:34;2.53;;;1.20;;
12567;SDS011;6349;50.904;6.136;2024-02-14T11:22:36;1.60;;;1.00;;
12567;SDS011;6349;50.904;6.136;2024-02-14T11:24:36;1.33;;;1.00;;
12567;SDS011;6349;50.904;6.136;2024-02-14T11:26:38;1.13;;;0.80;;
12567;SDS011;6349;50.904;6.136;2024-02-14T11:28:39;1.17;;;1.07;;
12567;SDS011;6349;50.904;6.136;2024-02-14T11:30:40;1.27;;;0.80;;
12567;SDS011;6349;50.904;6.136;2024-02-14T11:32:42;1.53;;;0.90;;
12567;SDS011;6349;50.904;6.136;2024-02-14T11:34:43;1.17;;;0.80;;
12567;SDS011;6349;50.904;6.136;2024-02-14T11:36:53;0.70;;;0.70;;
12567;SDS011;6349;50.904;6.136;2024-02-14T11:38:53;0.93;;;0.77;;
12567;SDS011;6349;50.904;6.136;2024-02-14T11:40:55;1.10;;;0.80;;
12567;SDS011;6349;50.904;6.136;2024-02-14T11:42:59;1.53;;;0.77;;
12567;SDS011;6349;50.904;6.136;2024-02-14T11:44:59;0.93;;;0.70;;
12567;SDS011;6349;50.904;6.136;2024-02-14T11:47:00;1.27;;;0.93;;
12567;SDS011;6349;50.904;6.136;2024-02-14T11:49:02;0.97;;;0.80;;
12567;SDS011;6349;50.904;6.136;2024-02-14T11:51:03;1.23;;;0.80;;
12567;SDS011;6349;50.904;6.136;2024-02-14T11:53:07;0.73;;;0.73;;
12567;SDS011;6349;50.904;6.136;2024-02-14T11:55:11;1.00;;;0.83;;
12567;SDS011;6349;50.904;6.136;2024-02-14T11:57:16;1.90;;;0.80;;
12567;SDS011;6349;50.904;6.136;2024-02-14T11:59:18;0.57;;;0.57;;
12567;SDS011;6349;50.904;6.136;2024-02-14T12:01:19;0.80;;;0.80;;
12567;SDS011;6349;50.904;6.136;2024-02-14T12:03:21;0.87;;;0.67;;
12567;SDS011;6349;50.904;6.136;2024-02-14T12:05:23;0.60;;;0.60;;
12567;SDS011;6349;50.904;6.136;2024-02-14T12:07:24;1.00;;;0.60;;
12567;SDS011;6349;50.904;6.136;2024-02-14T12:09:26;0.93;;;0.80;;
12567;SDS011;6349;50.904;6.136;2024-02-14T12:11:27;0.70;;;0.70;;
12567;SDS011;6349;50.904;6.136;2024-02-14T12:13:30;0.73;;;0.73;;
12567;SDS011;6349;50.904;6.136;2024-02-14T12:15:36;0.80;;;0.60;;
12567;SDS011;6349;50.904;6.136;2024-02-14T12:17:41;0.70;;;0.70;;
12567;SDS011;6349;50.904;6.136;2024-02-14T12:19:42;0.83;;;0.80;;
12567;SDS011;6349;50.904;6.136;2024-02-14T12:21:43;0.63;;;0.40;;